sensor_id;sensor_type;location;lat;lon;timestamp;P1;durP1;ratioP1;P2;durP2;ratioP2
4827;SDS011;2428;48.732;9.148;2023-06-19T00:02:06;4.60;;;3.90;;
4827;SDS011;2428;48.732;9.148;2023-06-19T00:04:31;5.60;;;4.80;;
4827;SDS011;2428;48.732;9.148;2023-06-19T00:06:58;5.00;;;4.57;;
4827;SDS011;2428;48.732;9.148;2023-06-19T00:09:25;4.77;;;4.20;;
4827;SDS011;2428;48.732;9.148;2023-06-19T00:11:50;4.87;;;4.37;;
4827;SDS011;2428;48.732;9.148;2023-06-19T00:14:16;6.90;;;5.40;;
4827;SDS011;2428;48.732;9.148;2023-06-19T00:16:42;5.57;;;4.67;;
4827;SDS011;2428;48.732;9.148;2023-06-19T00:19:08;4.77;;;4.37;;
4827;SDS011;2428;48.732;9.148;2023-06-19T00:21:35;4.53;;;4.10;;
4827;SDS011;2428;48.732;9.148;2023-06-19T00:24:02;4.37;;;3.97;;
4827;SDS011;2428;48.732;9.148;2023-06-19T00:26:28;5.97;;;4.20;;
4827;SDS011;2428;48.732;9.148;2023-06-19T00:28:53;5.07;;;4.50;;
4827;SDS011;2428;48.732;9.148;2023-06-19T00:31:19;5.47;;;4.73;;
4827;SDS011;2428;48.732;9.148;2023-06-19T00:33:45;4.90;;;4.40;;
4827;SDS011;2428;48.732;9.148;2023-06-19T00:36:14;6.10;;;4.80;;
4827;SDS011;2428;48.732;9.148;2023-06-19T00:38:41;4.83;;;4.30;;
4827;SDS011;2428;48.732;9.148;2023-06-19T00:41:07;5.13;;;3.90;;
4827;SDS011;2428;48.732;9.148;2023-06-19T00:43:33;4.20;;;3.80;;
4827;SDS011;2428;48.732;9.148;2023-06-19T00:45:59;5.70;;;5.20;;
4827;SDS011;2428;48.732;9.148;2023-06-19T00:48:26;5.07;;;4.20;;
4827;SDS011;2428;48.732;9.148;2023-06-19T00:50:53;6.50;;;5.30;;
4827;SDS011;2428;48.732;9.148;2023-06-19T00:53:21;4.90;;;4.40;;
4827;SDS011;2428;48.732;9.148;2023-06-19T00:55:48;5.10;;;4.70;;
4827;SDS011;2428;48.732;9.148;2023-06-19T00:58:16;5.10;;;4.70;;
4827;SDS011;2428;48.732;9.148;2023-06-19T01:00:42;4.80;;;4.40;;
4827;SDS011;2428;48.732;9.148;2023-06-19T01:03:08;5.90;;;5.30;;
4827;SDS011;2428;48.732;9.148;2023-06-19T01:05:34;5.40;;;4.50;;
4827;SDS011;2428;48.732;9.148;2023-06-19T01:10:37;5.40;;;4.90;;
4827;SDS011;2428;48.732;9.148;2023-06-19T01:13:08;7.10;;;4.63;;
4827;SDS011;2428;48.732;9.148;2023-06-19T01:15:47;8.00;;;4.57;;
4827;SDS011;2428;48.732;9.148;2023-06-19T01:18:13;5.10;;;4.47;;
4827;SDS011;2428;48.732;9.148;2023-06-19T01:20:40;4.40;;;3.83;;
4827;SDS011;2428;48.732;9.148;2023-06-19T01:23:07;4.53;;;3.83;;
4827;SDS011;2428;48.732;9.148;2023-06-19T01:25:34;4.43;;;3.87;;
4827;SDS011;2428;48.732;9.148;2023-06-19T01:28:00;3.77;;;3.47;;
4827;SDS011;2428;48.732;9.148;2023-06-19T01:30:27;5.43;;;4.40;;
4827;SDS011;2428;48.732;9.148;2023-06-19T01:35:37;3.73;;;3.00;;
4827;SDS011;2428;48.732;9.148;2023-06-19T01:38:07;3.30;;;3.00;;
4827;SDS011;2428;48.732;9.148;2023-06-19T01:40:33;3.93;;;3.30;;
4827;SDS011;2428;48.732;9.148;2023-06-19T01:42:59;3.97;;;3.50;;
4827;SDS011;2428;48.732;9.148;2023-06-19T01:45:29;4.03;;;3.53;;
4827;SDS011;2428;48.732;9.148;2023-06-19T01:47:55;3.60;;;3.30;;
4827;SDS011;2428;48.732;9.148;2023-06-19T01:50:22;4.27;;;3.80;;
4827;SDS011;2428;48.732;9.148;2023-06-19T01:52:49;3.87;;;3.10;;
4827;SDS011;2428;48.732;9.148;2023-06-19T01:55:15;3.97;;;2.63;;
4827;SDS011;2428;48.732;9.148;2023-06-19T01:57:40;3.87;;;3.57;;
4827;SDS011;2428;48.732;9.148;2023-06-19T02:00:06;3.63;;;3.30;;
4827;SDS011;2428;48.732;9.148;2023-06-19T02:02:32;3.60;;;3.30;;
4827;SDS011;2428;48.732;9.148;2023-06-19T02:04:58;4.70;;;3.40;;
4827;SDS011;2428;48.732;9.148;2023-06-19T02:07:24;3.70;;;3.40;;
4827;SDS011;2428;48.732;9.148;2023-06-19T02:09:51;4.53;;;3.17;;
4827;SDS011;2428;48.732;9.148;2023-06-19T02:12:16;4.60;;;3.27;;
4827;SDS011;2428;48.732;9.148;2023-06-19T02:14:42;3.57;;;3.27;;
4827;SDS011;2428;48.732;9.148;2023-06-19T02:17:08;4.07;;;3.10;;
4827;SDS011;2428;48.732;9.148;2023-06-19T02:19:33;3.33;;;3.03;;
4827;SDS011;2428;48.732;9.148;2023-06-19T02:21:59;3.67;;;3.37;;
4827;SDS011;2428;48.732;9.148;2023-06-19T02:24:25;3.20;;;2.90;;
4827;SDS011;2428;48.732;9.148;2023-06-19T02:26:50;3.10;;;2.80;;
4827;SDS011;2428;48.732;9.148;2023-06-19T02:29:16;2.93;;;2.73;;
4827;SDS011;2428;48.732;9.148;2023-06-19T02:31:41;5.30;;;3.47;;
4827;SDS011;2428;48.732;9.148;2023-06-19T02:34:07;2.87;;;2.60;;
4827;SDS011;2428;48.732;9.148;2023-06-19T02:36:34;4.67;;;3.07;;
4827;SDS011;2428;48.732;9.148;2023-06-19T02:39:00;3.63;;;3.00;;
4827;SDS011;2428;48.732;9.148;2023-06-19T02:41:26;3.60;;;3.10;;
4827;SDS011;2428;48.732;9.148;2023-06-19T02:43:51;3.00;;;2.70;;
4827;SDS011;2428;48.732;9.148;2023-06-19T02:46:17;3.13;;;2.83;;
4827;SDS011;2428;48.732;9.148;2023-06-19T02:48:43;4.67;;;3.10;;
4827;SDS011;2428;48.732;9.148;2023-06-19T02:51:08;4.80;;;3.30;;
4827;SDS011;2428;48.732;9.148;2023-06-19T02:53:34;3.33;;;2.60;;
4827;SDS011;2428;48.732;9.148;2023-06-19T02:55:59;2.77;;;2.57;;
4827;SDS011;2428;48.732;9.148;2023-06-19T02:58:25;3.47;;;2.80;;
4827;SDS011;2428;48.732;9.148;2023-06-19T03:00:51;3.37;;;2.83;;
4827;SDS011;2428;48.732;9.148;2023-06-19T03:03:17;3.10;;;2.70;;
4827;SDS011;2428;48.732;9.148;2023-06-19T03:05:43;2.73;;;2.53;;
4827;SDS011;2428;48.732;9.148;2023-06-19T03:08:08;2.50;;;2.30;;
4827;SDS011;2428;48.732;9.148;2023-06-19T03:10:34;2.90;;;2.50;;
4827;SDS011;2428;48.732;9.148;2023-06-19T03:12:59;2.27;;;2.07;;
4827;SDS011;2428;48.732;9.148;2023-06-19T03:15:25;3.03;;;2.40;;
4827;SDS011;2428;48.732;9.148;2023-06-19T03:17:54;3.07;;;2.77;;
4827;SDS011;2428;48.732;9.148;2023-06-19T03:20:19;4.60;;;2.40;;
4827;SDS011;2428;48.732;9.148;2023-06-19T03:22:45;2.33;;;2.03;;
4827;SDS011;2428;48.732;9.148;2023-06-19T03:25:11;2.63;;;2.43;;
4827;SDS011;2428;48.732;9.148;2023-06-19T03:27:37;2.50;;;2.30;;
4827;SDS011;2428;48.732;9.148;2023-06-19T03:30:03;2.57;;;2.33;;
4827;SDS011;2428;48.732;9.148;2023-06-19T03:32:33;3.03;;;2.70;;
4827;SDS011;2428;48.732;9.148;2023-06-19T03:34:58;2.93;;;1.97;;
4827;SDS011;2428;48.732;9.148;2023-06-19T03:37:25;2.80;;;2.47;;
4827;SDS011;2428;48.732;9.148;2023-06-19T03:39:50;2.40;;;2.20;;
4827;SDS011;2428;48.732;9.148;2023-06-19T03:42:16;2.40;;;1.70;;
4827;SDS011;2428;48.732;9.148;2023-06-19T03:44:41;3.00;;;2.33;;
4827;SDS011;2428;48.732;9.148;2023-06-19T03:47:07;2.00;;;1.80;;
4827;SDS011;2428;48.732;9.148;2023-06-19T03:49:33;3.20;;;2.23;;
4827;SDS011;2428;48.732;9.148;2023-06-19T03:51:58;2.17;;;1.93;;
4827;SDS011;2428;48.732;9.148;2023-06-19T03:54:24;2.50;;;2.30;;
4827;SDS011;2428;48.732;9.148;2023-06-19T03:56:51;2.30;;;2.10;;
4827;SDS011;2428;48.732;9.148;2023-06-19T03:59:17;2.60;;;1.80;;
4827;SDS011;2428;48.732;9.148;2023-06-19T04:01:42;2.37;;;2.17;;
4827;SDS011;2428;48.732;9.148;2023-06-19T04:04:08;2.47;;;1.90;;
4827;SDS011;2428;48.732;9.148;2023-06-19T04:06:34;1.63;;;1.53;;
4827;SDS011;2428;48.732;9.148;2023-06-19T04:08:59;2.77;;;1.70;;
4827;SDS011;2428;48.732;9.148;2023-06-19T04:11:25;2.90;;;1.93;;
4827;SDS011;2428;48.732;9.148;2023-06-19T04:13:51;2.03;;;1.70;;
4827;SDS011;2428;48.732;9.148;2023-06-19T04:16:16;3.13;;;1.90;;
4827;SDS011;2428;48.732;9.148;2023-06-19T04:18:42;2.30;;;1.77;;
4827;SDS011;2428;48.732;9.148;2023-06-19T04:21:07;2.07;;;1.70;;
4827;SDS011;2428;48.732;9.148;2023-06-19T04:23:33;1.83;;;1.70;;
4827;SDS011;2428;48.732;9.148;2023-06-19T04:25:58;2.00;;;1.80;;
4827;SDS011;2428;48.732;9.148;2023-06-19T04:28:24;2.50;;;1.97;;
4827;SDS011;2428;48.732;9.148;2023-06-19T04:30:51;2.00;;;1.40;;
4827;SDS011;2428;48.732;9.148;2023-06-19T04:33:28;2.70;;;2.13;;
4827;SDS011;2428;48.732;9.148;2023-06-19T04:35:57;1.93;;;1.63;;
4827;SDS011;2428;48.732;9.148;2023-06-19T04:38:23;3.80;;;1.93;;
4827;SDS011;2428;48.732;9.148;2023-06-19T04:40:50;2.10;;;1.90;;
4827;SDS011;2428;48.732;9.148;2023-06-19T04:43:16;1.87;;;1.67;;
4827;SDS011;2428;48.732;9.148;2023-06-19T04:45:41;2.50;;;1.70;;
4827;SDS011;2428;48.732;9.148;2023-06-19T04:48:07;2.20;;;1.90;;
4827;SDS011;2428;48.732;9.148;2023-06-19T04:50:33;3.03;;;1.80;;
4827;SDS011;2428;48.732;9.148;2023-06-19T04:52:58;2.47;;;2.27;;
4827;SDS011;2428;48.732;9.148;2023-06-19T04:55:24;1.97;;;1.77;;
4827;SDS011;2428;48.732;9.148;2023-06-19T04:57:50;1.73;;;1.63;;
4827;SDS011;2428;48.732;9.148;2023-06-19T05:00:16;2.13;;;1.93;;
4827;SDS011;2428;48.732;9.148;2023-06-19T05:02:44;2.93;;;1.80;;
4827;SDS011;2428;48.732;9.148;2023-06-19T05:05:12;2.10;;;1.90;;
4827;SDS011;2428;48.732;9.148;2023-06-19T05:07:41;1.80;;;1.70;;
4827;SDS011;2428;48.732;9.148;2023-06-19T05:10:07;2.67;;;2.00;;
4827;SDS011;2428;48.732;9.148;2023-06-19T05:12:34;2.40;;;1.73;;
4827;SDS011;2428;48.732;9.148;2023-06-19T05:15:00;1.63;;;1.30;;
4827;SDS011;2428;48.732;9.148;2023-06-19T05:17:26;2.20;;;1.80;;
4827;SDS011;2428;48.732;9.148;2023-06-19T05:19:51;2.20;;;1.47;;
4827;SDS011;2428;48.732;9.148;2023-06-19T05:22:17;1.40;;;1.30;;
4827;SDS011;2428;48.732;9.148;2023-06-19T05:24:46;2.13;;;1.90;;
4827;SDS011;2428;48.732;9.148;2023-06-19T05:27:12;2.10;;;1.50;;
4827;SDS011;2428;48.732;9.148;2023-06-19T05:29:38;1.70;;;1.50;;
4827;SDS011;2428;48.732;9.148;2023-06-19T05:32:03;1.67;;;1.57;;
4827;SDS011;2428;48.732;9.148;2023-06-19T05:34:29;2.03;;;1.73;;
4827;SDS011;2428;48.732;9.148;2023-06-19T05:36:55;3.57;;;2.53;;
4827;SDS011;2428;48.732;9.148;2023-06-19T05:39:20;2.17;;;1.97;;
4827;SDS011;2428;48.732;9.148;2023-06-19T05:41:46;2.20;;;2.00;;
4827;SDS011;2428;48.732;9.148;2023-06-19T05:44:12;2.83;;;1.77;;
4827;SDS011;2428;48.732;9.148;2023-06-19T05:46:41;2.10;;;1.90;;
4827;SDS011;2428;48.732;9.148;2023-06-19T05:49:07;2.93;;;2.00;;
4827;SDS011;2428;48.732;9.148;2023-06-19T05:51:33;3.70;;;2.57;;
4827;SDS011;2428;48.732;9.148;2023-06-19T05:53:59;3.27;;;2.40;;
4827;SDS011;2428;48.732;9.148;2023-06-19T05:56:29;2.50;;;2.03;;
4827;SDS011;2428;48.732;9.148;2023-06-19T05:58:58;2.17;;;1.97;;
4827;SDS011;2428;48.732;9.148;2023-06-19T06:01:25;2.90;;;1.87;;
4827;SDS011;2428;48.732;9.148;2023-06-19T06:03:53;2.20;;;2.03;;
4827;SDS011;2428;48.732;9.148;2023-06-19T06:06:19;2.90;;;1.70;;
4827;SDS011;2428;48.732;9.148;2023-06-19T06:08:44;2.07;;;1.83;;
4827;SDS011;2428;48.732;9.148;2023-06-19T06:11:10;3.07;;;1.80;;
4827;SDS011;2428;48.732;9.148;2023-06-19T06:13:36;2.30;;;2.10;;
4827;SDS011;2428;48.732;9.148;2023-06-19T06:16:01;1.90;;;1.70;;
4827;SDS011;2428;48.732;9.148;2023-06-19T06:18:27;2.33;;;2.10;;
4827;SDS011;2428;48.732;9.148;2023-06-19T06:20:52;1.87;;;1.30;;
4827;SDS011;2428;48.732;9.148;2023-06-19T06:23:18;2.10;;;1.90;;
4827;SDS011;2428;48.732;9.148;2023-06-19T06:25:43;1.53;;;1.43;;
4827;SDS011;2428;48.732;9.148;2023-06-19T06:28:10;2.30;;;2.10;;
4827;SDS011;2428;48.732;9.148;2023-06-19T06:30:36;1.67;;;1.57;;
4827;SDS011;2428;48.732;9.148;2023-06-19T06:33:03;1.63;;;1.53;;
4827;SDS011;2428;48.732;9.148;2023-06-19T06:35:29;1.63;;;1.37;;
4827;SDS011;2428;48.732;9.148;2023-06-19T06:37:55;1.97;;;1.73;;
4827;SDS011;2428;48.732;9.148;2023-06-19T06:40:20;2.03;;;1.83;;
4827;SDS011;2428;48.732;9.148;2023-06-19T06:42:46;1.83;;;1.60;;
4827;SDS011;2428;48.732;9.148;2023-06-19T06:45:12;2.40;;;1.70;;
4827;SDS011;2428;48.732;9.148;2023-06-19T06:47:38;1.80;;;1.70;;
4827;SDS011;2428;48.732;9.148;2023-06-19T06:50:05;1.70;;;1.60;;
4827;SDS011;2428;48.732;9.148;2023-06-19T06:52:31;2.50;;;2.10;;
4827;SDS011;2428;48.732;9.148;2023-06-19T06:54:57;1.60;;;1.50;;
4827;SDS011;2428;48.732;9.148;2023-06-19T06:57:22;1.83;;;1.73;;
4827;SDS011;2428;48.732;9.148;2023-06-19T06:59:48;2.53;;;2.33;;
4827;SDS011;2428;48.732;9.148;2023-06-19T07:02:13;2.37;;;2.13;;
4827;SDS011;2428;48.732;9.148;2023-06-19T07:04:39;2.47;;;1.90;;
4827;SDS011;2428;48.732;9.148;2023-06-19T07:07:05;1.40;;;1.27;;
4827;SDS011;2428;48.732;9.148;2023-06-19T07:09:31;3.23;;;2.20;;
4827;SDS011;2428;48.732;9.148;2023-06-19T07:11:57;2.33;;;1.87;;
4827;SDS011;2428;48.732;9.148;2023-06-19T07:14:23;1.97;;;1.70;;
4827;SDS011;2428;48.732;9.148;2023-06-19T07:16:49;1.43;;;1.33;;
4827;SDS011;2428;48.732;9.148;2023-06-19T07:19:15;1.23;;;1.10;;
4827;SDS011;2428;48.732;9.148;2023-06-19T07:21:40;1.60;;;1.50;;
4827;SDS011;2428;48.732;9.148;2023-06-19T07:24:06;1.73;;;1.63;;
4827;SDS011;2428;48.732;9.148;2023-06-19T07:26:32;1.93;;;1.60;;
4827;SDS011;2428;48.732;9.148;2023-06-19T07:28:58;2.00;;;1.63;;
4827;SDS011;2428;48.732;9.148;2023-06-19T07:31:24;3.23;;;2.40;;
4827;SDS011;2428;48.732;9.148;2023-06-19T07:33:49;1.90;;;1.70;;
4827;SDS011;2428;48.732;9.148;2023-06-19T07:36:15;2.17;;;1.93;;
4827;SDS011;2428;48.732;9.148;2023-06-19T07:38:43;1.57;;;1.47;;
4827;SDS011;2428;48.732;9.148;2023-06-19T07:41:10;1.97;;;1.80;;
4827;SDS011;2428;48.732;9.148;2023-06-19T07:43:36;2.20;;;1.80;;
4827;SDS011;2428;48.732;9.148;2023-06-19T07:46:02;1.80;;;1.70;;
4827;SDS011;2428;48.732;9.148;2023-06-19T07:48:28;1.80;;;1.57;;
4827;SDS011;2428;48.732;9.148;2023-06-19T07:50:54;1.70;;;1.60;;
4827;SDS011;2428;48.732;9.148;2023-06-19T07:53:19;2.77;;;2.27;;
4827;SDS011;2428;48.732;9.148;2023-06-19T07:55:45;1.87;;;1.70;;
4827;SDS011;2428;48.732;9.148;2023-06-19T07:58:11;2.10;;;2.00;;
4827;SDS011;2428;48.732;9.148;2023-06-19T08:00:37;2.07;;;1.60;;
4827;SDS011;2428;48.732;9.148;2023-06-19T08:03:02;2.50;;;1.87;;
4827;SDS011;2428;48.732;9.148;2023-06-19T08:05:28;2.33;;;1.63;;
4827;SDS011;2428;48.732;9.148;2023-06-19T08:07:54;2.00;;;1.50;;
4827;SDS011;2428;48.732;9.148;2023-06-19T08:10:20;2.83;;;2.20;;
4827;SDS011;2428;48.732;9.148;2023-06-19T08:12:46;2.10;;;1.67;;
4827;SDS011;2428;48.732;9.148;2023-06-19T08:15:12;4.30;;;2.00;;
4827;SDS011;2428;48.732;9.148;2023-06-19T08:17:41;2.30;;;2.07;;
4827;SDS011;2428;48.732;9.148;2023-06-19T08:20:07;2.60;;;1.93;;
4827;SDS011;2428;48.732;9.148;2023-06-19T08:22:33;2.20;;;2.00;;
4827;SDS011;2428;48.732;9.148;2023-06-19T08:24:59;2.07;;;1.80;;
4827;SDS011;2428;48.732;9.148;2023-06-19T08:27:25;2.33;;;1.67;;
4827;SDS011;2428;48.732;9.148;2023-06-19T08:29:50;1.70;;;1.60;;
4827;SDS011;2428;48.732;9.148;2023-06-19T08:32:16;2.03;;;1.87;;
4827;SDS011;2428;48.732;9.148;2023-06-19T08:34:42;1.97;;;1.77;;
4827;SDS011;2428;48.732;9.148;2023-06-19T08:37:07;2.40;;;2.20;;
4827;SDS011;2428;48.732;9.148;2023-06-19T08:39:33;2.10;;;2.00;;
4827;SDS011;2428;48.732;9.148;2023-06-19T08:42:00;2.50;;;2.30;;
4827;SDS011;2428;48.732;9.148;2023-06-19T08:44:26;2.50;;;2.30;;
4827;SDS011;2428;48.732;9.148;2023-06-19T08:46:52;2.30;;;2.10;;
4827;SDS011;2428;48.732;9.148;2023-06-19T08:49:17;2.13;;;2.00;;
4827;SDS011;2428;48.732;9.148;2023-06-19T08:51:43;1.90;;;1.80;;
4827;SDS011;2428;48.732;9.148;2023-06-19T08:54:08;2.10;;;1.80;;
4827;SDS011;2428;48.732;9.148;2023-06-19T08:56:34;2.00;;;1.80;;
4827;SDS011;2428;48.732;9.148;2023-06-19T08:59:09;1.70;;;1.60;;
4827;SDS011;2428;48.732;9.148;2023-06-19T09:01:35;1.87;;;1.67;;
4827;SDS011;2428;48.732;9.148;2023-06-19T09:04:08;1.90;;;1.70;;
4827;SDS011;2428;48.732;9.148;2023-06-19T09:06:59;1.80;;;1.70;;
4827;SDS011;2428;48.732;9.148;2023-06-19T09:09:25;1.80;;;1.60;;
4827;SDS011;2428;48.732;9.148;2023-06-19T09:12:01;1.77;;;1.63;;
4827;SDS011;2428;48.732;9.148;2023-06-19T09:14:38;1.90;;;1.67;;
4827;SDS011;2428;48.732;9.148;2023-06-19T09:17:05;1.70;;;1.50;;
4827;SDS011;2428;48.732;9.148;2023-06-19T09:19:32;2.47;;;1.63;;
4827;SDS011;2428;48.732;9.148;2023-06-19T09:22:03;2.63;;;1.80;;
4827;SDS011;2428;48.732;9.148;2023-06-19T09:24:37;2.03;;;1.77;;
4827;SDS011;2428;48.732;9.148;2023-06-19T09:27:05;2.20;;;1.43;;
4827;SDS011;2428;48.732;9.148;2023-06-19T09:29:35;1.70;;;1.60;;
4827;SDS011;2428;48.732;9.148;2023-06-19T09:32:13;1.90;;;1.80;;
4827;SDS011;2428;48.732;9.148;2023-06-19T09:34:42;2.17;;;1.60;;
4827;SDS011;2428;48.732;9.148;2023-06-19T09:37:08;2.07;;;1.67;;
4827;SDS011;2428;48.732;9.148;2023-06-19T09:39:36;1.57;;;1.27;;
4827;SDS011;2428;48.732;9.148;2023-06-19T09:42:02;2.20;;;1.97;;
4827;SDS011;2428;48.732;9.148;2023-06-19T09:44:31;1.50;;;1.40;;
4827;SDS011;2428;48.732;9.148;2023-06-19T09:47:01;1.83;;;1.73;;
4827;SDS011;2428;48.732;9.148;2023-06-19T09:49:31;1.63;;;1.53;;
4827;SDS011;2428;48.732;9.148;2023-06-19T09:51:59;1.73;;;1.63;;
4827;SDS011;2428;48.732;9.148;2023-06-19T09:54:24;2.17;;;1.90;;
4827;SDS011;2428;48.732;9.148;2023-06-19T09:56:52;2.33;;;2.07;;
4827;SDS011;2428;48.732;9.148;2023-06-19T09:59:21;1.83;;;1.70;;
4827;SDS011;2428;48.732;9.148;2023-06-19T10:01:47;2.17;;;1.73;;
4827;SDS011;2428;48.732;9.148;2023-06-19T10:04:14;2.60;;;2.13;;
4827;SDS011;2428;48.732;9.148;2023-06-19T10:06:45;1.50;;;1.40;;
4827;SDS011;2428;48.732;9.148;2023-06-19T10:09:11;1.80;;;1.70;;
4827;SDS011;2428;48.732;9.148;2023-06-19T10:11:49;1.80;;;1.70;;
4827;SDS011;2428;48.732;9.148;2023-06-19T10:14:16;2.47;;;1.80;;
4827;SDS011;2428;48.732;9.148;2023-06-19T10:16:43;2.40;;;2.20;;
4827;SDS011;2428;48.732;9.148;2023-06-19T10:19:16;2.33;;;2.13;;
4827;SDS011;2428;48.732;9.148;2023-06-19T10:21:50;2.30;;;2.10;;
4827;SDS011;2428;48.732;9.148;2023-06-19T10:24:18;1.83;;;1.73;;
4827;SDS011;2428;48.732;9.148;2023-06-19T10:26:58;2.33;;;2.07;;
4827;SDS011;2428;48.732;9.148;2023-06-19T10:29:25;2.30;;;2.10;;
4827;SDS011;2428;48.732;9.148;2023-06-19T10:31:52;2.10;;;2.00;;
4827;SDS011;2428;48.732;9.148;2023-06-19T10:34:18;1.93;;;1.70;;
4827;SDS011;2428;48.732;9.148;2023-06-19T10:36:44;2.30;;;2.10;;
4827;SDS011;2428;48.732;9.148;2023-06-19T10:39:09;2.30;;;2.20;;
4827;SDS011;2428;48.732;9.148;2023-06-19T10:41:35;2.50;;;2.30;;
4827;SDS011;2428;48.732;9.148;2023-06-19T10:44:05;3.40;;;2.40;;
4827;SDS011;2428;48.732;9.148;2023-06-19T10:46:36;2.37;;;2.13;;
4827;SDS011;2428;48.732;9.148;2023-06-19T10:49:02;2.57;;;2.37;;
4827;SDS011;2428;48.732;9.148;2023-06-19T10:51:29;2.60;;;2.40;;
4827;SDS011;2428;48.732;9.148;2023-06-19T10:54:02;4.10;;;2.50;;
4827;SDS011;2428;48.732;9.148;2023-06-19T10:56:27;2.50;;;2.30;;
4827;SDS011;2428;48.732;9.148;2023-06-19T10:59:03;3.40;;;3.10;;
4827;SDS011;2428;48.732;9.148;2023-06-19T11:01:45;2.70;;;2.50;;
4827;SDS011;2428;48.732;9.148;2023-06-19T11:04:12;2.50;;;2.30;;
4827;SDS011;2428;48.732;9.148;2023-06-19T11:06:39;2.10;;;2.00;;
4827;SDS011;2428;48.732;9.148;2023-06-19T11:09:06;2.60;;;2.40;;
4827;SDS011;2428;48.732;9.148;2023-06-19T11:11:43;1.90;;;1.80;;
4827;SDS011;2428;48.732;9.148;2023-06-19T11:14:10;2.63;;;2.43;;
4827;SDS011;2428;48.732;9.148;2023-06-19T11:16:44;2.40;;;2.20;;
4827;SDS011;2428;48.732;9.148;2023-06-19T11:19:15;2.70;;;2.50;;
4827;SDS011;2428;48.732;9.148;2023-06-19T11:21:44;2.67;;;2.47;;
4827;SDS011;2428;48.732;9.148;2023-06-19T11:24:19;3.10;;;2.60;;
4827;SDS011;2428;48.732;9.148;2023-06-19T11:26:48;2.53;;;2.20;;
4827;SDS011;2428;48.732;9.148;2023-06-19T11:29:18;2.90;;;2.70;;
4827;SDS011;2428;48.732;9.148;2023-06-19T11:31:47;2.63;;;2.33;;
4827;SDS011;2428;48.732;9.148;2023-06-19T11:34:14;2.60;;;2.40;;
4827;SDS011;2428;48.732;9.148;2023-06-19T11:36:41;2.43;;;2.23;;
4827;SDS011;2428;48.732;9.148;2023-06-19T11:39:13;2.00;;;1.90;;
4827;SDS011;2428;48.732;9.148;2023-06-19T11:41:41;2.20;;;2.10;;
4827;SDS011;2428;48.732;9.148;2023-06-19T11:44:09;2.53;;;2.40;;
4827;SDS011;2428;48.732;9.148;2023-06-19T11:46:35;2.20;;;2.10;;
4827;SDS011;2428;48.732;9.148;2023-06-19T11:49:11;2.17;;;2.07;;
4827;SDS011;2428;48.732;9.148;2023-06-19T11:51:43;3.00;;;2.80;;
4827;SDS011;2428;48.732;9.148;2023-06-19T11:54:10;2.47;;;2.37;;
4827;SDS011;2428;48.732;9.148;2023-06-19T11:56:39;2.23;;;2.13;;
4827;SDS011;2428;48.732;9.148;2023-06-19T11:59:05;2.40;;;2.23;;
4827;SDS011;2428;48.732;9.148;2023-06-19T12:01:32;2.70;;;2.50;;
4827;SDS011;2428;48.732;9.148;2023-06-19T12:03:59;2.57;;;2.40;;
4827;SDS011;2428;48.732;9.148;2023-06-19T12:06:25;2.57;;;2.37;;
4827;SDS011;2428;48.732;9.148;2023-06-19T12:08:51;2.23;;;2.13;;
4827;SDS011;2428;48.732;9.148;2023-06-19T12:11:17;2.10;;;2.00;;
4827;SDS011;2428;48.732;9.148;2023-06-19T12:13:43;2.40;;;2.20;;
4827;SDS011;2428;48.732;9.148;2023-06-19T12:16:11;2.43;;;2.23;;
4827;SDS011;2428;48.732;9.148;2023-06-19T12:18:38;2.60;;;2.20;;
4827;SDS011;2428;48.732;9.148;2023-06-19T12:21:04;3.07;;;2.87;;
4827;SDS011;2428;48.732;9.148;2023-06-19T12:23:29;3.03;;;2.77;;
4827;SDS011;2428;48.732;9.148;2023-06-19T12:25:55;2.50;;;2.30;;
4827;SDS011;2428;48.732;9.148;2023-06-19T12:28:21;2.90;;;2.70;;
4827;SDS011;2428;48.732;9.148;2023-06-19T12:30:47;2.70;;;2.50;;
4827;SDS011;2428;48.732;9.148;2023-06-19T12:33:16;3.10;;;2.90;;
4827;SDS011;2428;48.732;9.148;2023-06-19T12:35:42;2.23;;;2.10;;
4827;SDS011;2428;48.732;9.148;2023-06-19T12:38:08;3.43;;;3.13;;
4827;SDS011;2428;48.732;9.148;2023-06-19T12:40:34;3.37;;;3.07;;
4827;SDS011;2428;48.732;9.148;2023-06-19T12:43:01;3.10;;;2.87;;
4827;SDS011;2428;48.732;9.148;2023-06-19T12:45:27;3.00;;;2.80;;
4827;SDS011;2428;48.732;9.148;2023-06-19T12:47:53;2.60;;;2.40;;
4827;SDS011;2428;48.732;9.148;2023-06-19T12:50:18;2.37;;;2.17;;
4827;SDS011;2428;48.732;9.148;2023-06-19T12:52:44;2.70;;;2.50;;
4827;SDS011;2428;48.732;9.148;2023-06-19T12:55:10;2.63;;;2.40;;
4827;SDS011;2428;48.732;9.148;2023-06-19T12:57:35;2.33;;;2.13;;
4827;SDS011;2428;48.732;9.148;2023-06-19T13:00:01;1.80;;;1.70;;
4827;SDS011;2428;48.732;9.148;2023-06-19T13:02:30;2.50;;;2.30;;
4827;SDS011;2428;48.732;9.148;2023-06-19T13:04:56;3.00;;;2.70;;
4827;SDS011;2428;48.732;9.148;2023-06-19T13:07:23;2.10;;;1.77;;
4827;SDS011;2428;48.732;9.148;2023-06-19T13:09:48;2.00;;;1.90;;
4827;SDS011;2428;48.732;9.148;2023-06-19T13:12:14;2.50;;;2.30;;
4827;SDS011;2428;48.732;9.148;2023-06-19T13:14:40;2.67;;;2.20;;
4827;SDS011;2428;48.732;9.148;2023-06-19T13:17:05;2.13;;;1.77;;
4827;SDS011;2428;48.732;9.148;2023-06-19T13:19:31;2.40;;;2.03;;
4827;SDS011;2428;48.732;9.148;2023-06-19T13:21:57;3.03;;;2.70;;
4827;SDS011;2428;48.732;9.148;2023-06-19T13:24:23;2.57;;;2.37;;
4827;SDS011;2428;48.732;9.148;2023-06-19T13:26:48;2.80;;;2.60;;
4827;SDS011;2428;48.732;9.148;2023-06-19T13:29:14;2.77;;;2.27;;
4827;SDS011;2428;48.732;9.148;2023-06-19T13:31:40;2.87;;;2.63;;
4827;SDS011;2428;48.732;9.148;2023-06-19T13:34:06;2.10;;;2.00;;
4827;SDS011;2428;48.732;9.148;2023-06-19T13:36:31;2.83;;;2.50;;
4827;SDS011;2428;48.732;9.148;2023-06-19T13:38:57;2.40;;;2.30;;
4827;SDS011;2428;48.732;9.148;2023-06-19T13:41:23;2.60;;;2.40;;
4827;SDS011;2428;48.732;9.148;2023-06-19T13:43:52;2.70;;;2.47;;
4827;SDS011;2428;48.732;9.148;2023-06-19T13:46:18;1.70;;;1.60;;
4827;SDS011;2428;48.732;9.148;2023-06-19T13:48:46;2.60;;;2.40;;
4827;SDS011;2428;48.732;9.148;2023-06-19T13:51:15;2.67;;;2.47;;
4827;SDS011;2428;48.732;9.148;2023-06-19T13:53:41;2.33;;;2.13;;
4827;SDS011;2428;48.732;9.148;2023-06-19T13:56:07;2.20;;;2.10;;
4827;SDS011;2428;48.732;9.148;2023-06-19T13:58:33;2.53;;;2.30;;
4827;SDS011;2428;48.732;9.148;2023-06-19T14:00:58;2.33;;;2.13;;
4827;SDS011;2428;48.732;9.148;2023-06-19T14:03:24;2.20;;;2.10;;
4827;SDS011;2428;48.732;9.148;2023-06-19T14:05:49;2.90;;;2.70;;
4827;SDS011;2428;48.732;9.148;2023-06-19T14:08:15;3.47;;;3.17;;
4827;SDS011;2428;48.732;9.148;2023-06-19T14:10:40;3.07;;;2.87;;
4827;SDS011;2428;48.732;9.148;2023-06-19T14:13:06;2.90;;;2.70;;
4827;SDS011;2428;48.732;9.148;2023-06-19T14:15:31;2.67;;;2.50;;
4827;SDS011;2428;48.732;9.148;2023-06-19T14:17:57;2.47;;;1.93;;
4827;SDS011;2428;48.732;9.148;2023-06-19T14:20:23;2.20;;;2.00;;
4827;SDS011;2428;48.732;9.148;2023-06-19T14:22:48;1.83;;;1.73;;
4827;SDS011;2428;48.732;9.148;2023-06-19T14:25:14;2.40;;;2.20;;
4827;SDS011;2428;48.732;9.148;2023-06-19T14:27:39;2.77;;;2.57;;
4827;SDS011;2428;48.732;9.148;2023-06-19T14:30:05;2.90;;;2.67;;
4827;SDS011;2428;48.732;9.148;2023-06-19T14:32:33;2.60;;;2.40;;
4827;SDS011;2428;48.732;9.148;2023-06-19T14:35:00;3.17;;;2.87;;
4827;SDS011;2428;48.732;9.148;2023-06-19T14:37:25;2.70;;;2.50;;
4827;SDS011;2428;48.732;9.148;2023-06-19T14:39:51;2.37;;;2.17;;
4827;SDS011;2428;48.732;9.148;2023-06-19T14:42:16;2.97;;;2.77;;
4827;SDS011;2428;48.732;9.148;2023-06-19T14:44:42;2.70;;;2.50;;
4827;SDS011;2428;48.732;9.148;2023-06-19T14:47:08;2.90;;;2.70;;
4827;SDS011;2428;48.732;9.148;2023-06-19T14:49:33;2.83;;;2.33;;
4827;SDS011;2428;48.732;9.148;2023-06-19T14:51:59;2.43;;;2.20;;
4827;SDS011;2428;48.732;9.148;2023-06-19T14:54:24;2.67;;;2.47;;
4827;SDS011;2428;48.732;9.148;2023-06-19T14:56:50;2.90;;;2.67;;
4827;SDS011;2428;48.732;9.148;2023-06-19T14:59:16;2.40;;;2.20;;
4827;SDS011;2428;48.732;9.148;2023-06-19T15:01:43;2.80;;;2.50;;
4827;SDS011;2428;48.732;9.148;2023-06-19T15:04:09;2.70;;;2.50;;
4827;SDS011;2428;48.732;9.148;2023-06-19T15:06:34;2.50;;;2.30;;
4827;SDS011;2428;48.732;9.148;2023-06-19T15:09:00;2.70;;;2.50;;
4827;SDS011;2428;48.732;9.148;2023-06-19T15:11:26;2.60;;;2.40;;
4827;SDS011;2428;48.732;9.148;2023-06-19T15:13:51;3.87;;;2.80;;
4827;SDS011;2428;48.732;9.148;2023-06-19T15:16:17;4.57;;;2.60;;
4827;SDS011;2428;48.732;9.148;2023-06-19T15:18:44;2.70;;;2.50;;